Time;durP1;ratioP1;P1;durP2;ratioP2;P2;SDS_P1;SDS_P2;PMS_P1;PMS_P2;Temp;Humidity;BMP_temperature;BMP_pressure;BME280_temperature;BME280_humidity;BME280_pressure;Samples;Min_cycle;Max_cycle;Signal;HPM_P1;HPM_P2
2023/03/10 00:01:41;;;;;;;;;;;;;;;11.00;100.00;98604.34;4985149;28;19925;-53
2023/03/10 00:04:06;;;;;;;;;;;;;;;10.85;100.00;98615.72;4985193;28;19922;-53
2023/03/10 00:06:34;;;;;;;;;;;;;;;10.93;100.00;98612.56;4988078;28;19929;-49
2023/03/10 00:08:59;;;;;;;;;;;;;;;10.92;100.00;98610.13;4985190;28;19921;-55
2023/03/10 00:11:25;;;;;;;;;;;;;;;10.83;100.00;98604.44;4988084;28;19940;-51
2023/03/10 00:13:50;;;;;;;;;;;;;;;11.19;100.00;98615.47;4985056;28;19925;-50
2023/03/10 00:16:20;;;;;;;;;;;;;;;11.16;100.00;98616.00;4988688;28;19914;-54
2023/03/10 00:18:45;;;;;;;;;;;;;;;11.45;100.00;98605.81;4988728;28;19918;-52
2023/03/10 00:21:15;;;;;;;;;;;;;;;10.94;100.00;98608.84;4983461;28;19914;-56
2023/03/10 00:23:40;;;;;;;;;;;;;;;10.64;100.00;98612.81;4986699;28;19997;-51
2023/03/10 00:26:05;;;;;;;;;;;;;;;11.04;100.00;98614.25;4987087;28;19925;-55
2023/03/10 00:28:30;;;;;;;;;;;;;;;11.31;100.00;98612.63;4990440;28;19985;-54
2023/03/10 00:31:25;;;;;;;;;;;;;;;11.20;100.00;98614.41;4989569;28;20004;-55
2023/03/10 00:33:51;;;;;;;;;;;;;;;11.28;100.00;98605.13;4982928;28;19914;-50
2023/03/10 00:36:19;;;;;;;;;;;;;;;11.02;100.00;98603.03;4991431;28;19921;-52
2023/03/10 00:38:46;;;;;;;;;;;;;;;10.98;100.00;98598.44;4982360;28;19973;-55
2023/03/10 00:41:14;;;;;;;;;;;;;;;11.00;100.00;98597.13;4986656;28;19914;-53
2023/03/10 00:43:39;;;;;;;;;;;;;;;11.21;100.00;98599.19;4998700;28;19914;-52
2023/03/10 00:46:05;;;;;;;;;;;;;;;11.28;100.00;98599.78;4989094;28;19941;-53
2023/03/10 00:48:31;;;;;;;;;;;;;;;11.31;100.00;98594.72;4984919;28;19918;-51
2023/03/10 00:50:57;;;;;;;;;;;;;;;11.46;100.00;98591.34;4981292;28;19914;-53
2023/03/10 00:53:23;;;;;;;;;;;;;;;11.52;100.00;98594.84;4987338;28;20051;-52
2023/03/10 00:56:10;;;;;;;;;;;;;;;11.41;100.00;98596.66;4987524;28;19922;-49
2023/03/10 00:58:35;;;;;;;;;;;;;;;11.48;100.00;98604.47;5004136;28;19944;-49
2023/03/10 01:01:02;;;;;;;;;;;;;;;11.51;100.00;98609.31;4984204;28;19926;-54
2023/03/10 01:03:28;;;;;;;;;;;;;;;11.56;100.00;98612.03;4982698;28;20003;-54
2023/03/10 01:05:54;;;;;;;;;;;;;;;11.45;100.00;98605.81;4984651;28;19936;-53
2023/03/10 01:08:20;;;;;;;;;;;;;;;11.53;100.00;98612.53;4986805;28;19985;-51
2023/03/10 01:10:46;;;;;;;;;;;;;;;11.30;100.00;98611.84;4986559;28;19933;-49
2023/03/10 01:13:12;;;;;;;;;;;;;;;11.59;100.00;98610.69;4978159;28;19921;-52
2023/03/10 01:15:38;;;;;;;;;;;;;;;11.60;100.00;98607.78;4982879;28;19960;-53
2023/03/10 01:18:04;;;;;;;;;;;;;;;11.72;100.00;98606.78;4984230;28;19914;-50
2023/03/10 01:20:30;;;;;;;;;;;;;;;11.58;100.00;98604.56;4987195;28;19914;-55
2023/03/10 01:22:56;;;;;;;;;;;;;;;11.79;100.00;98595.84;4992609;28;19981;-49
2023/03/10 01:25:21;;;;;;;;;;;;;;;11.67;100.00;98594.19;4988910;28;19914;-55
2023/03/10 01:27:47;;;;;;;;;;;;;;;11.70;100.00;98598.19;4990821;28;19918;-53
2023/03/10 01:30:12;;;;;;;;;;;;;;;11.78;100.00;98597.72;4986839;28;19929;-50
2023/03/10 01:32:39;;;;;;;;;;;;;;;11.68;100.00;98590.44;4980227;28;19922;-47
2023/03/10 01:35:04;;;;;;;;;;;;;;;11.82;100.00;98577.41;4986829;28;19981;-51
2023/03/10 01:37:30;;;;;;;;;;;;;;;11.80;100.00;98576.03;4965754;28;19918;-51
2023/03/10 01:39:56;;;;;;;;;;;;;;;11.82;100.00;98573.91;4970945;28;19950;-54
2023/03/10 01:42:22;;;;;;;;;;;;;;;11.80;100.00;98578.72;4967740;28;19914;-52
2023/03/10 01:45:06;;;;;;;;;;;;;;;11.64;100.00;98577.81;4967137;28;19961;-54
2023/03/10 01:47:31;;;;;;;;;;;;;;;11.70;100.00;98579.44;4964035;28;19919;-53
2023/03/10 01:49:57;;;;;;;;;;;;;;;11.63;100.00;98563.59;4978695;28;19921;-54
2023/03/10 01:52:25;;;;;;;;;;;;;;;11.59;100.00;98568.69;4962883;28;19926;-53
2023/03/10 01:55:01;;;;;;;;;;;;;;;11.47;100.00;98562.72;4962468;28;19914;-52
2023/03/10 01:57:29;;;;;;;;;;;;;;;11.53;100.00;98559.00;4967882;28;19925;-51
2023/03/10 01:59:56;;;;;;;;;;;;;;;11.53;100.00;98560.88;4964565;28;19918;-52
2023/03/10 02:02:22;;;;;;;;;;;;;;;11.61;100.00;98563.88;4963281;28;19918;-51
2023/03/10 02:04:49;;;;;;;;;;;;;;;11.68;100.00;98557.50;4968284;28;19915;-52
2023/03/10 02:07:22;;;;;;;;;;;;;;;11.54;100.00;98555.28;4965441;28;19918;-49
2023/03/10 02:09:48;;;;;;;;;;;;;;;11.35;100.00;98552.19;4965305;28;19945;-54
2023/03/10 02:12:15;;;;;;;;;;;;;;;11.40;100.00;98559.47;4963114;28;19914;-54
2023/03/10 02:14:43;;;;;;;;;;;;;;;11.38;100.00;98557.03;4968537;28;19918;-55
2023/03/10 02:17:12;;;;;;;;;;;;;;;11.30;100.00;98550.31;4967222;28;19914;-51
2023/03/10 02:19:37;;;;;;;;;;;;;;;11.39;100.00;98547.13;4968507;28;19914;-50
2023/03/10 02:22:07;;;;;;;;;;;;;;;11.42;100.00;98552.78;4970680;28;20009;-50
2023/03/10 02:24:44;;;;;;;;;;;;;;;11.52;100.00;98556.59;4970837;28;19925;-54
2023/03/10 02:27:09;;;;;;;;;;;;;;;11.49;100.00;98544.53;4970251;28;19954;-53
2023/03/10 02:29:37;;;;;;;;;;;;;;;11.44;100.00;98548.00;4970230;28;19914;-53
2023/03/10 02:32:03;;;;;;;;;;;;;;;11.57;100.00;98533.34;4971727;28;19982;-52
2023/03/10 02:34:29;;;;;;;;;;;;;;;11.64;100.00;98537.66;4969741;28;19941;-52
2023/03/10 02:36:55;;;;;;;;;;;;;;;11.72;100.00;98539.84;4980666;28;19929;-52
2023/03/10 02:39:21;;;;;;;;;;;;;;;11.58;100.00;98534.13;4983098;28;19914;-53
2023/03/10 02:41:47;;;;;;;;;;;;;;;11.70;100.00;98534.75;5010534;28;19926;-53
2023/03/10 02:44:17;;;;;;;;;;;;;;;11.67;100.00;98526.44;4981141;28;19956;-50
2023/03/10 02:46:43;;;;;;;;;;;;;;;11.66;100.00;98530.16;4983762;28;19918;-52
2023/03/10 02:49:09;;;;;;;;;;;;;;;11.72;100.00;98515.75;4985790;28;19914;-52
2023/03/10 02:51:41;;;;;;;;;;;;;;;11.67;100.00;98521.91;4991315;28;19917;-50
2023/03/10 02:54:10;;;;;;;;;;;;;;;11.75;100.00;98524.06;4974438;28;19997;-51
2023/03/10 02:56:36;;;;;;;;;;;;;;;11.62;100.00;98519.16;4972631;28;19940;-53
2023/03/10 02:59:03;;;;;;;;;;;;;;;11.67;100.00;98523.75;4993203;28;19996;-51
2023/03/10 03:01:29;;;;;;;;;;;;;;;11.66;100.00;98520.28;5007590;28;19922;-51
2023/03/10 03:03:55;;;;;;;;;;;;;;;11.54;100.00;98517.81;4970851;28;19918;-53
2023/03/10 03:06:22;;;;;;;;;;;;;;;11.30;100.00;98512.03;5000621;28;19914;-50
2023/03/10 03:08:48;;;;;;;;;;;;;;;11.47;100.00;98507.31;5006824;28;19918;-51
2023/03/10 03:11:16;;;;;;;;;;;;;;;11.56;100.00;98506.81;4997382;28;19973;-52
2023/03/10 03:13:41;;;;;;;;;;;;;;;11.57;100.00;98501.22;4986239;28;19940;-52
2023/03/10 03:16:07;;;;;;;;;;;;;;;11.64;100.00;98500.97;4970273;28;19921;-51
2023/03/10 03:18:33;;;;;;;;;;;;;;;11.45;100.00;98492.56;4979436;28;19914;-54
2023/03/10 03:21:02;;;;;;;;;;;;;;;11.25;100.00;98488.69;4989990;28;19917;-49
2023/03/10 03:23:28;;;;;;;;;;;;;;;11.30;100.00;98486.09;4990032;28;19918;-52
2023/03/10 03:25:53;;;;;;;;;;;;;;;11.32;100.00;98486.63;4982569;28;19944;-52
2023/03/10 03:28:20;;;;;;;;;;;;;;;11.33;100.00;98482.88;4966990;28;19942;-53
2023/03/10 03:30:48;;;;;;;;;;;;;;;11.12;100.00;98475.78;4969420;28;19921;-54
2023/03/10 03:33:14;;;;;;;;;;;;;;;11.40;100.00;98479.97;4991219;28;19953;-54
2023/03/10 03:35:41;;;;;;;;;;;;;;;11.18;100.00;98478.22;4988604;28;19929;-50
2023/03/10 03:38:07;;;;;;;;;;;;;;;11.34;100.00;98478.31;4971274;28;19922;-53
2023/03/10 03:40:35;;;;;;;;;;;;;;;11.39;100.00;98480.25;4983381;28;19959;-55
2023/03/10 03:43:03;;;;;;;;;;;;;;;11.29;100.00;98481.78;4966938;28;19940;-54
2023/03/10 03:45:31;;;;;;;;;;;;;;;11.30;100.00;98480.72;4987752;28;19902;-52
2023/03/10 03:47:56;;;;;;;;;;;;;;;11.24;100.00;98480.94;4967757;28;19930;-51
2023/03/10 03:50:24;;;;;;;;;;;;;;;11.33;100.00;98485.56;4972784;28;19921;-53
2023/03/10 03:52:51;;;;;;;;;;;;;;;11.44;100.00;98491.78;4974562;28;19902;-53
2023/03/10 03:55:19;;;;;;;;;;;;;;;11.59;100.00;98485.72;4981696;28;19914;-53
2023/03/10 03:57:48;;;;;;;;;;;;;;;11.56;100.00;98478.19;4971832;28;19914;-51
2023/03/10 04:00:16;;;;;;;;;;;;;;;11.59;100.00;98476.84;4984145;28;19914;-54
2023/03/10 04:02:45;;;;;;;;;;;;;;;11.41;100.00;98470.88;4989899;28;19922;-53
2023/03/10 04:05:11;;;;;;;;;;;;;;;11.54;100.00;98469.63;4993778;28;19913;-50
2023/03/10 04:07:37;;;;;;;;;;;;;;;11.68;100.00;98472.63;4988170;28;19936;-51
2023/03/10 04:10:04;;;;;;;;;;;;;;;11.77;100.00;98470.25;5004829;28;19914;-56
2023/03/10 04:12:30;;;;;;;;;;;;;;;11.72;100.00;98475.56;4997430;28;19914;-53
2023/03/10 04:14:56;;;;;;;;;;;;;;;11.82;100.00;98470.28;5004666;28;19914;-50
2023/03/10 04:17:22;;;;;;;;;;;;;;;11.82;100.00;98469.47;5005508;28;19917;-54
2023/03/10 04:19:48;;;;;;;;;;;;;;;11.73;100.00;98467.28;4997164;28;19914;-56
2023/03/10 04:22:16;;;;;;;;;;;;;;;11.75;100.00;98467.00;4991957;28;19913;-53
2023/03/10 04:24:44;;;;;;;;;;;;;;;11.58;100.00;98462.69;5008880;28;19918;-51
2023/03/10 04:27:10;;;;;;;;;;;;;;;11.64;100.00;98474.19;5010383;28;19928;-50
2023/03/10 04:29:37;;;;;;;;;;;;;;;11.80;100.00;98474.28;4991020;28;19925;-53
2023/03/10 04:32:03;;;;;;;;;;;;;;;11.86;100.00;98471.38;4996844;28;19914;-49
2023/03/10 04:34:29;;;;;;;;;;;;;;;11.74;100.00;98473.44;5002943;28;19924;-54
2023/03/10 04:36:55;;;;;;;;;;;;;;;11.75;100.00;98469.69;4981017;28;20005;-53
2023/03/10 04:39:20;;;;;;;;;;;;;;;11.75;100.00;98475.06;4969843;28;19914;-52
2023/03/10 04:41:46;;;;;;;;;;;;;;;11.88;100.00;98458.50;4967168;28;19914;-53
2023/03/10 04:44:11;;;;;;;;;;;;;;;11.84;100.00;98468.16;4968914;28;19914;-53
2023/03/10 04:46:38;;;;;;;;;;;;;;;11.81;100.00;98455.28;4970858;28;19914;-50
2023/03/10 04:49:05;;;;;;;;;;;;;;;11.75;100.00;98458.97;4967758;28;19930;-54
2023/03/10 04:51:30;;;;;;;;;;;;;;;11.80;100.00;98456.34;4965168;28;19957;-50
2023/03/10 04:53:56;;;;;;;;;;;;;;;11.86;100.00;98462.50;4962834;28;19941;-53
2023/03/10 04:56:23;;;;;;;;;;;;;;;12.02;100.00;98468.78;4964987;28;19914;-47
2023/03/10 04:58:50;;;;;;;;;;;;;;;12.10;100.00;98462.91;4965829;28;19949;-54
2023/03/10 05:01:15;;;;;;;;;;;;;;;11.89;100.00;98459.34;4971413;28;19930;-53
2023/03/10 05:03:45;;;;;;;;;;;;;;;11.91;100.00;98467.91;4966070;28;20013;-54
2023/03/10 05:06:14;;;;;;;;;;;;;;;11.97;100.00;98471.38;4969840;28;19998;-52
2023/03/10 05:08:40;;;;;;;;;;;;;;;11.95;100.00;98462.81;4966306;28;19918;-50
2023/03/10 05:11:06;;;;;;;;;;;;;;;11.75;100.00;98475.06;4968862;28;19914;-52
2023/03/10 05:13:32;;;;;;;;;;;;;;;11.93;100.00;98470.31;4964216;28;19914;-54
2023/03/10 05:15:58;;;;;;;;;;;;;;;11.76;100.00;98456.06;4970735;28;19919;-52
2023/03/10 05:18:24;;;;;;;;;;;;;;;11.75;100.00;98458.97;4972266;28;19920;-52
2023/03/10 05:20:55;;;;;;;;;;;;;;;11.76;100.00;98465.94;4967173;28;20419;-51
2023/03/10 05:23:21;;;;;;;;;;;;;;;11.74;100.00;98473.44;4964132;28;19998;-53
2023/03/10 05:25:46;;;;;;;;;;;;;;;11.86;100.00;98465.19;4967545;28;19954;-49
2023/03/10 05:28:14;;;;;;;;;;;;;;;11.84;100.00;98460.09;4961922;28;19925;-55
2023/03/10 05:30:41;;;;;;;;;;;;;;;11.99;100.00;98459.34;4955457;28;19914;-55
2023/03/10 05:33:06;;;;;;;;;;;;;;;12.06;100.00;98459.16;4964829;28;19914;-51
2023/03/10 05:35:32;;;;;;;;;;;;;;;11.97;100.00;98471.38;4971545;28;19914;-52
2023/03/10 05:37:57;;;;;;;;;;;;;;;11.87;100.00;98467.63;5010966;28;20113;-53
2023/03/10 05:40:23;;;;;;;;;;;;;;;11.83;100.00;98471.88;4992141;28;19914;-52
2023/03/10 05:42:49;;;;;;;;;;;;;;;11.70;100.00;98467.81;5010982;28;19918;-51
2023/03/10 05:45:16;;;;;;;;;;;;;;;11.80;100.00;98472.41;4997250;28;19989;-49
2023/03/10 05:47:42;;;;;;;;;;;;;;;11.96;100.00;98473.28;5003786;28;19922;-51
2023/03/10 05:50:09;;;;;;;;;;;;;;;11.75;100.00;98469.69;5010658;28;20003;-57
2023/03/10 05:52:35;;;;;;;;;;;;;;;11.81;100.00;98473.22;4987460;28;20062;-51
2023/03/10 05:55:01;;;;;;;;;;;;;;;11.45;100.00;98474.66;4997090;28;19953;-53
2023/03/10 05:57:27;;;;;;;;;;;;;;;11.63;100.00;98475.25;5008739;28;19918;-53
2023/03/10 05:59:53;;;;;;;;;;;;;;;11.77;100.00;98472.94;4986260;28;19988;-50
2023/03/10 06:02:18;;;;;;;;;;;;;;;11.72;100.00;98475.56;5009140;28;19937;-50
2023/03/10 06:04:44;;;;;;;;;;;;;;;11.59;100.00;98475.00;4987211;28;19921;-47
2023/03/10 06:07:09;;;;;;;;;;;;;;;11.86;100.00;98479.41;4980829;28;19922;-53
2023/03/10 06:09:35;;;;;;;;;;;;;;;11.88;100.00;98474.59;4988631;28;19928;-50
2023/03/10 06:12:00;;;;;;;;;;;;;;;11.85;100.00;98475.09;4987276;28;19957;-47
2023/03/10 06:14:26;;;;;;;;;;;;;;;11.97;100.00;98482.09;4989851;28;19921;-50
2023/03/10 06:16:55;;;;;;;;;;;;;;;12.01;100.00;98483.25;4986164;28;19914;-51
2023/03/10 06:19:21;;;;;;;;;;;;;;;11.99;100.00;98480.78;4988014;28;19914;-53
2023/03/10 06:21:47;;;;;;;;;;;;;;;12.04;100.00;98474.69;4991660;28;19921;-52
2023/03/10 06:24:13;;;;;;;;;;;;;;;11.93;100.00;98470.31;4988699;28;19914;-50
2023/03/10 06:26:39;;;;;;;;;;;;;;;11.91;100.00;98473.25;4979730;28;19914;-52
2023/03/10 06:29:04;;;;;;;;;;;;;;;11.93;100.00;98471.13;4983012;28;19918;-50
2023/03/10 06:31:30;;;;;;;;;;;;;;;11.89;100.00;98470.84;4987455;28;19913;-52
2023/03/10 06:33:55;;;;;;;;;;;;;;;11.76;100.00;98476.66;4980397;28;19985;-53
2023/03/10 06:36:21;;;;;;;;;;;;;;;11.62;100.00;98481.69;4985142;28;19930;-52
2023/03/10 06:38:47;;;;;;;;;;;;;;;11.51;100.00;98475.47;4989900;28;19944;-49
2023/03/10 06:41:13;;;;;;;;;;;;;;;11.48;100.00;98478.66;4986890;28;19914;-53
2023/03/10 06:43:39;;;;;;;;;;;;;;;11.53;100.00;98483.25;4988778;28;19982;-50
2023/03/10 06:46:05;;;;;;;;;;;;;;;11.70;100.00;98475.84;4987273;28;19922;-52
2023/03/10 06:48:31;;;;;;;;;;;;;;;11.65;100.00;98480.38;4988475;28;19917;-51
2023/03/10 06:50:57;;;;;;;;;;;;;;;11.53;100.00;98477.91;4990708;28;19914;-48
2023/03/10 06:53:22;;;;;;;;;;;;;;;11.47;100.00;98485.09;4987195;28;19944;-53
2023/03/10 06:55:59;;;;;;;;;;;;;;;11.51;100.00;98475.47;4983452;28;19914;-51
2023/03/10 06:58:24;;;;;;;;;;;;;;;11.56;100.00;98478.19;4986905;28;19914;-51
2023/03/10 07:00:50;;;;;;;;;;;;;;;11.39;100.00;98473.00;4984779;28;19918;-54
2023/03/10 07:03:15;;;;;;;;;;;;;;;11.31;100.00;98482.34;4987978;28;19918;-55
2023/03/10 07:05:41;;;;;;;;;;;;;;;11.25;100.00;98486.03;4990329;28;19914;-53
2023/03/10 07:08:06;;;;;;;;;;;;;;;11.18;100.00;98478.22;4988909;28;19918;-51
2023/03/10 07:10:31;;;;;;;;;;;;;;;11.23;100.00;98480.13;4988578;28;19916;-48
2023/03/10 07:12:57;;;;;;;;;;;;;;;11.23;100.00;98479.34;4993645;28;19974;-50
2023/03/10 07:15:24;;;;;;;;;;;;;;;11.46;100.00;98478.94;4993253;28;19936;-50
2023/03/10 07:17:49;;;;;;;;;;;;;;;11.52;100.00;98477.09;4994699;28;19913;-51
2023/03/10 07:20:16;;;;;;;;;;;;;;;11.44;100.00;98482.94;5003119;28;19917;-49
2023/03/10 07:22:41;;;;;;;;;;;;;;;11.37;100.00;98488.50;4990378;28;19921;-51
2023/03/10 07:25:06;;;;;;;;;;;;;;;11.32;100.00;98486.63;4992339;28;19914;-48
2023/03/10 07:27:33;;;;;;;;;;;;;;;11.16;100.00;98487.59;4992000;28;19940;-49
2023/03/10 07:29:58;;;;;;;;;;;;;;;11.07;100.00;98486.44;5016316;28;19922;-52
2023/03/10 07:32:24;;;;;;;;;;;;;;;11.21;100.00;98489.50;4992515;28;19925;-52
2023/03/10 07:34:50;;;;;;;;;;;;;;;11.15;100.00;98489.44;4988620;28;19913;-54
2023/03/10 07:37:15;;;;;;;;;;;;;;;11.24;100.00;98492.44;4980266;28;19961;-50
2023/03/10 07:39:40;;;;;;;;;;;;;;;11.28;100.00;98495.41;4971208;28;19914;-52
2023/03/10 07:42:06;;;;;;;;;;;;;;;11.43;100.00;98500.06;4969588;28;19920;-52
2023/03/10 07:44:32;;;;;;;;;;;;;;;11.68;100.00;98501.25;4974095;28;19915;-50
2023/03/10 07:46:57;;;;;;;;;;;;;;;11.55;100.00;98500.69;4969934;28;19937;-51
2023/03/10 07:49:22;;;;;;;;;;;;;;;11.52;100.00;98500.38;4973006;28;19915;-52
2023/03/10 07:51:48;;;;;;;;;;;;;;;11.50;100.00;98497.94;4975011;28;19925;-51
2023/03/10 07:54:13;;;;;;;;;;;;;;;11.64;100.00;98509.00;4971301;28;19925;-54
2023/03/10 07:56:39;;;;;;;;;;;;;;;11.95;100.00;98509.16;4975712;28;19910;-51
2023/03/10 07:59:04;;;;;;;;;;;;;;;11.82;100.00;98502.41;4971325;28;19915;-52
2023/03/10 08:01:30;;;;;;;;;;;;;;;11.40;100.00;98498.69;4971630;28;19914;-51
2023/03/10 08:03:56;;;;;;;;;;;;;;;11.95;100.00;98514.53;4972039;28;19914;-52
2023/03/10 08:06:23;;;;;;;;;;;;;;;11.98;100.00;98529.25;4971937;28;19969;-50
2023/03/10 08:08:49;;;;;;;;;;;;;;;12.02;100.00;98517.00;4971373;28;19923;-51
2023/03/10 08:11:14;;;;;;;;;;;;;;;11.80;100.00;98515.25;4969996;28;19922;-51
2023/03/10 08:13:40;;;;;;;;;;;;;;;12.12;100.00;98516.22;4970807;28;19914;-52
2023/03/10 08:16:05;;;;;;;;;;;;;;;12.17;100.00;98509.00;4971136;28;19922;-54
2023/03/10 08:18:30;;;;;;;;;;;;;;;11.95;100.00;98519.06;4970600;28;19968;-52
2023/03/10 08:20:56;;;;;;;;;;;;;;;12.19;100.00;98525.63;4970786;28;19918;-51
2023/03/10 08:23:22;;;;;;;;;;;;;;;12.14;100.00;98535.53;4971413;28;19914;-50
2023/03/10 08:25:48;;;;;;;;;;;;;;;11.80;100.00;98523.28;4968650;28;19930;-52
2023/03/10 08:28:13;;;;;;;;;;;;;;;11.79;100.00;98526.22;4969968;28;19925;-48
2023/03/10 08:30:39;;;;;;;;;;;;;;;11.91;100.00;98519.59;4969776;28;19914;-50
2023/03/10 08:33:07;;;;;;;;;;;;;;;12.17;100.00;98532.31;4970077;28;19923;-47
2023/03/10 08:35:34;;;;;;;;;;;;;;;12.29;100.00;98521.38;4968551;28;19921;-52
2023/03/10 08:38:00;;;;;;;;;;;;;;;12.36;100.00;98529.97;4986021;28;19982;-50
2023/03/10 08:40:25;;;;;;;;;;;;;;;12.53;100.00;98531.63;4984099;28;19937;-51
2023/03/10 08:42:51;;;;;;;;;;;;;;;12.38;100.00;98530.50;4988653;28;19993;-50
2023/03/10 08:45:16;;;;;;;;;;;;;;;12.48;100.00;98533.22;4987190;28;19914;-48
2023/03/10 08:47:42;;;;;;;;;;;;;;;12.15;100.00;98521.06;4984687;28;19918;-53
2023/03/10 08:50:08;;;;;;;;;;;;;;;12.23;100.00;98517.06;4986268;28;19914;-48
2023/03/10 08:52:33;;;;;;;;;;;;;;;12.16;100.00;98528.81;4985449;28;19914;-50
2023/03/10 08:54:58;;;;;;;;;;;;;;;12.15;100.00;98526.41;4991478;28;19981;-52
2023/03/10 08:57:24;;;;;;;;;;;;;;;12.43;100.00;98529.72;4983129;28;19949;-53
2023/03/10 08:59:50;;;;;;;;;;;;;;;12.22;100.00;98526.16;4986322;28;19914;-50
2023/03/10 09:02:16;;;;;;;;;;;;;;;11.88;100.00;98525.47;4982391;28;19910;-52
2023/03/10 09:04:41;;;;;;;;;;;;;;;12.18;100.00;98524.00;4992164;28;19972;-51
2023/03/10 09:07:07;;;;;;;;;;;;;;;11.83;100.00;98530.81;4983991;28;19925;-53
2023/03/10 09:09:32;;;;;;;;;;;;;;;12.16;100.00;98528.81;4985257;28;19971;-49
2023/03/10 09:11:58;;;;;;;;;;;;;;;12.30;100.00;98528.34;4981757;28;19949;-49
2023/03/10 09:14:23;;;;;;;;;;;;;;;12.45;100.00;98527.56;4983139;28;19914;-52
2023/03/10 09:16:49;;;;;;;;;;;;;;;12.25;100.00;98525.66;4985152;28;19948;-51
2023/03/10 09:19:14;;;;;;;;;;;;;;;12.32;100.00;98526.19;4981546;28;19941;-51
2023/03/10 09:21:41;;;;;;;;;;;;;;;12.27;100.00;98528.88;4984363;28;19929;-52
2023/03/10 09:24:06;;;;;;;;;;;;;;;12.01;100.00;98531.47;4987403;28;19944;-49
2023/03/10 09:26:33;;;;;;;;;;;;;;;12.38;100.00;98535.06;4983787;28;19981;-46
2023/03/10 09:28:58;;;;;;;;;;;;;;;12.48;100.00;98538.59;4979234;28;20232;-51
2023/03/10 09:31:27;;;;;;;;;;;;;;;12.81;100.00;98542.91;4990556;28;19929;-53
2023/03/10 09:33:52;;;;;;;;;;;;;;;12.85;100.00;98535.94;4988726;28;19957;-53
2023/03/10 09:36:18;;;;;;;;;;;;;;;12.69;100.00;98538.63;4986321;28;19933;-49
2023/03/10 09:38:43;;;;;;;;;;;;;;;12.73;100.00;98536.19;4991958;28;20628;-52
2023/03/10 09:41:09;;;;;;;;;;;;;;;12.66;100.00;98530.28;4983152;28;19952;-53
2023/03/10 09:43:40;;;;;;;;;;;;;;;12.76;100.00;98536.47;4986386;28;19910;-49
2023/03/10 09:46:17;;;;;;;;;;;;;;;12.58;100.00;98537.81;4984612;28;19922;-52
2023/03/10 09:48:54;;;;;;;;;;;;;;;12.36;100.00;98538.00;4986269;28;19940;-52
2023/03/10 09:51:21;;;;;;;;;;;;;;;12.47;100.00;98547.69;4984299;28;20319;-53
2023/03/10 09:53:47;;;;;;;;;;;;;;;12.44;100.00;98539.38;4989586;28;19915;-49
2023/03/10 09:56:15;;;;;;;;;;;;;;;12.55;100.00;98550.91;4980410;28;19932;-48
2023/03/10 09:58:46;;;;;;;;;;;;;;;12.71;100.00;98551.75;4988985;28;19914;-49
2023/03/10 10:01:17;;;;;;;;;;;;;;;12.74;100.00;98553.91;4985447;28;19914;-51
2023/03/10 10:03:44;;;;;;;;;;;;;;;12.60;100.00;98553.59;4991022;28;19929;-47
2023/03/10 10:06:16;;;;;;;;;;;;;;;12.62;100.00;98546.09;4980404;28;19945;-47
2023/03/10 10:09:12;;;;;;;;;;;;;;;12.58;100.00;98550.38;4988171;28;19928;-52
2023/03/10 10:11:38;;;;;;;;;;;;;;;12.80;100.00;98552.03;4972604;28;20644;-50
2023/03/10 10:14:18;;;;;;;;;;;;;;;12.95;100.00;98560.09;4984031;28;19922;-50
2023/03/10 10:16:52;;;;;;;;;;;;;;;12.94;100.00;98569.22;4981003;28;19985;-51
2023/03/10 10:19:24;;;;;;;;;;;;;;;12.98;100.00;98575.66;4980001;28;19974;-50
2023/03/10 10:21:55;;;;;;;;;;;;;;;13.09;100.00;98570.28;4984197;28;20028;-52
2023/03/10 10:24:21;;;;;;;;;;;;;;;13.07;100.00;98570.59;4982147;28;19914;-52
2023/03/10 10:26:47;;;;;;;;;;;;;;;13.17;100.00;98584.00;4984609;28;19924;-50
2023/03/10 10:29:16;;;;;;;;;;;;;;;13.51;100.00;98577.28;4987072;28;19918;-51
2023/03/10 10:31:41;;;;;;;;;;;;;;;13.59;100.00;98578.63;4976632;28;19926;-50
2023/03/10 10:34:20;;;;;;;;;;;;;;;13.18;100.00;98577.53;4983272;28;19914;-52
2023/03/10 10:36:50;;;;;;;;;;;;;;;13.32;100.00;98579.72;4981120;28;19973;-51
2023/03/10 10:39:25;;;;;;;;;;;;;;;13.51;100.00;98579.97;4989212;28;19924;-54
2023/03/10 10:41:51;;;;;;;;;;;;;;;13.36;100.00;98578.09;4986448;28;19915;-50
2023/03/10 10:44:17;;;;;;;;;;;;;;;13.14;100.00;98573.78;4986346;28;21991;-52
2023/03/10 10:46:50;;;;;;;;;;;;;;;13.18;100.00;98558.75;4986743;28;19929;-47
2023/03/10 10:49:22;;;;;;;;;;;;;;;13.33;100.00;98560.63;4982364;28;19914;-54
2023/03/10 10:51:57;;;;;;;;;;;;;;;13.23;100.00;98571.38;4983299;28;19967;-49
2023/03/10 10:54:27;;;;;;;;;;;;;;;13.02;100.00;98563.31;4987895;28;19914;-51
2023/03/10 10:57:02;;;;;;;;;;;;;;;12.85;100.00;98568.94;4989772;28;19925;-49
2023/03/10 10:59:28;;;;;;;;;;;;;;;12.94;100.00;98568.41;4986142;28;19914;-47
2023/03/10 11:01:55;;;;;;;;;;;;;;;13.19;100.00;98571.09;4986761;28;19921;-54
2023/03/10 11:04:21;;;;;;;;;;;;;;;13.25;100.00;98574.59;4987131;28;19918;-54
2023/03/10 11:06:46;;;;;;;;;;;;;;;13.17;100.00;98578.63;4991265;28;19917;-52
2023/03/10 11:09:13;;;;;;;;;;;;;;;13.23;100.00;98579.44;4988309;28;19918;-54
2023/03/10 11:11:46;;;;;;;;;;;;;;;13.27;100.00;98577.81;4986227;28;19919;-51
2023/03/10 11:14:23;;;;;;;;;;;;;;;13.39;100.00;98576.75;4989788;28;19914;-52
2023/03/10 11:16:58;;;;;;;;;;;;;;;13.19;100.00;98587.22;4987227;28;19914;-50
2023/03/10 11:19:39;;;;;;;;;;;;;;;12.90;100.00;98584.22;4987282;28;19914;-51
2023/03/10 11:22:20;;;;;;;;;;;;;;;12.88;100.00;98581.00;4988263;28;19989;-52
2023/03/10 11:24:49;;;;;;;;;;;;;;;12.92;100.00;98582.09;4987335;28;19914;-53
2023/03/10 11:27:21;;;;;;;;;;;;;;;13.27;100.00;98579.72;4986559;28;19914;-51
2023/03/10 11:30:04;;;;;;;;;;;;;;;13.34;100.00;98583.72;4989982;28;19977;-50
2023/03/10 11:32:37;;;;;;;;;;;;;;;13.44;100.00;98579.47;4984037;28;19914;-52
2023/03/10 11:35:29;;;;;;;;;;;;;;;13.40;100.00;98576.47;4988530;28;19925;-50
2023/03/10 11:38:13;;;;;;;;;;;;;;;13.76;100.00;98572.97;4988924;28;19953;-50
2023/03/10 11:40:47;;;;;;;;;;;;;;;13.82;100.00;98571.88;4986901;28;19914;-53
2023/03/10 11:43:18;;;;;;;;;;;;;;;13.56;100.00;98563.84;4987989;28;19914;-52
2023/03/10 11:45:51;;;;;;;;;;;;;;;13.59;100.00;98560.63;4988801;28;19940;-55
2023/03/10 11:48:16;;;;;;;;;;;;;;;13.57;100.00;98549.34;4986869;28;19918;-54
2023/03/10 11:50:51;;;;;;;;;;;;;;;13.38;100.00;98548.28;5000195;28;19968;-54
2023/03/10 11:53:29;;;;;;;;;;;;;;;13.68;100.00;98554.72;4984975;28;19977;-52
2023/03/10 11:55:56;;;;;;;;;;;;;;;13.84;100.00;98545.56;4989228;28;19914;-53
2023/03/10 11:58:30;;;;;;;;;;;;;;;13.40;100.00;98551.53;4984579;28;19914;-53
2023/03/10 12:00:55;;;;;;;;;;;;;;;13.70;100.00;98555.25;4984592;28;19985;-49
2023/03/10 12:03:24;;;;;;;;;;;;;;;13.64;100.00;98548.28;4985595;28;19918;-52
2023/03/10 12:05:53;;;;;;;;;;;;;;;13.76;100.00;98551.47;4986225;28;19921;-49
2023/03/10 12:08:21;;;;;;;;;;;;;;;13.71;100.00;98554.16;4983939;28;19929;-51
2023/03/10 12:10:48;;;;;;;;;;;;;;;13.82;100.00;98553.06;4987414;28;19977;-51
2023/03/10 12:13:17;;;;;;;;;;;;;;;13.67;100.00;98553.13;4984597;28;19964;-51
2023/03/10 12:15:43;;;;;;;;;;;;;;;13.57;100.00;98546.66;4987253;28;19921;-52
2023/03/10 12:18:10;;;;;;;;;;;;;;;13.64;100.00;98542.91;4988652;28;19940;-49
2023/03/10 12:20:36;;;;;;;;;;;;;;;13.28;100.00;98547.22;4987888;28;19918;-53
2023/03/10 12:23:31;;;;;;;;;;;;;;;13.38;100.00;98543.72;4989706;28;19986;-48
2023/03/10 12:25:56;;;;;;;;;;;;;;;13.23;100.00;98538.34;4973692;28;19922;-55
2023/03/10 12:28:23;;;;;;;;;;;;;;;13.39;100.00;98548.00;4982275;28;19965;-53
2023/03/10 12:30:59;;;;;;;;;;;;;;;13.24;100.00;98545.34;4984810;28;20001;-52
2023/03/10 12:33:28;;;;;;;;;;;;;;;13.02;100.00;98543.72;4978236;28;19924;-50
2023/03/10 12:36:14;;;;;;;;;;;;;;;13.34;100.00;98535.41;4984154;28;19933;-49
2023/03/10 12:38:45;;;;;;;;;;;;;;;12.85;100.00;98533.25;4978660;28;19914;-53